createdAt,value
2018-04-01T00:01:04.089Z,96914.23
2018-04-01T00:03:31.716Z,96912.56
2018-04-01T00:05:59.328Z,96917.25
2018-04-01T00:08:26.988Z,96920.76
2018-04-01T00:10:54.585Z,96922.76
2018-04-01T00:13:22.295Z,96921.92
2018-04-01T00:15:49.877Z,96932.00
2018-04-01T00:18:17.474Z,96934.81
2018-04-01T00:20:45.083Z,96942.78
2018-04-01T00:23:12.771Z,96941.93
2018-04-01T00:25:40.447Z,96948.65
2018-04-01T00:28:08.108Z,96945.50
2018-04-01T00:30:35.701Z,96946.48
2018-04-01T00:33:03.347Z,96949.02
2018-04-01T00:35:30.969Z,96960.55
2018-04-01T00:37:58.580Z,96962.05
2018-04-01T00:40:26.192Z,96958.97
2018-04-01T00:42:53.824Z,96967.48
2018-04-01T00:45:21.461Z,96973.72
2018-04-01T00:47:49.061Z,96971.98
2018-04-01T00:50:16.670Z,96976.42
2018-04-01T00:52:44.256Z,96982.42
2018-04-01T00:55:11.872Z,96988.64
2018-04-01T00:57:39.484Z,96989.96
2018-04-01T01:00:07.076Z,96990.47
2018-04-01T01:02:34.685Z,96998.97
2018-04-01T01:05:02.299Z,97001.77
2018-04-01T01:07:29.895Z,97000.84
2018-04-01T01:09:57.491Z,97004.06
2018-04-01T01:12:25.090Z,97001.98
2018-04-01T01:14:52.742Z,97007.86
2018-04-01T01:17:20.324Z,97002.93
2018-04-01T01:19:47.930Z,97011.34
2018-04-01T01:22:15.559Z,97017.84
2018-04-01T01:24:43.160Z,97021.16
2018-04-01T01:27:10.796Z,97029.41
2018-04-01T01:29:41.587Z,97024.53
2018-04-01T01:32:09.182Z,97039.94
2018-04-01T01:34:36.784Z,97039.81
2018-04-01T01:37:04.385Z,97044.31
2018-04-01T01:39:31.993Z,97048.05
2018-04-01T01:41:59.647Z,97049.52
2018-04-01T01:44:27.248Z,97065.08
2018-04-01T01:46:58.068Z,97059.35
2018-04-01T01:49:25.824Z,97072.64
2018-04-01T01:51:53.424Z,97066.34
2018-04-01T01:54:21.021Z,97068.36
2018-04-01T01:56:48.635Z,97069.98
2018-04-01T01:59:16.255Z,97070.00
2018-04-01T02:01:43.839Z,97072.92
2018-04-01T02:04:11.447Z,97071.27
2018-04-01T02:06:39.047Z,97072.80
2018-04-01T02:09:06.727Z,97080.87
2018-04-01T02:11:34.315Z,97089.00
2018-04-01T02:14:01.900Z,97088.73
2018-04-01T02:16:29.509Z,97092.57
2018-04-01T02:18:57.103Z,97098.26
2018-04-01T02:21:24.720Z,97101.17
2018-04-01T02:23:52.328Z,97106.11
2018-04-01T02:26:19.938Z,97106.80
2018-04-01T02:28:47.616Z,97109.33
2018-04-01T02:31:15.217Z,97109.23
2018-04-01T02:33:42.835Z,97109.47
2018-04-01T02:36:10.420Z,97111.19
2018-04-01T02:38:38.019Z,97116.77
2018-04-01T02:41:05.712Z,97116.78
2018-04-01T02:43:33.332Z,97120.48
2018-04-01T02:46:00.907Z,97123.42
2018-04-01T02:48:28.506Z,97121.55
2018-04-01T02:50:56.110Z,97129.79
2018-04-01T02:53:23.716Z,97129.67
2018-04-01T02:55:51.363Z,97136.95
2018-04-01T02:58:19.007Z,97137.09
2018-04-01T03:00:46.607Z,97138.03
2018-04-01T03:03:14.218Z,97135.37
2018-04-01T03:05:41.841Z,97140.16
2018-04-01T03:08:09.436Z,97140.16
2018-04-01T03:10:37.044Z,97139.09
2018-04-01T03:13:04.658Z,97140.44
2018-04-01T03:15:32.274Z,97144.54
2018-04-01T03:17:59.874Z,97151.06
2018-04-01T03:20:28.739Z,97142.95
2018-04-01T03:22:56.338Z,97142.30
2018-04-01T03:25:23.943Z,97147.46
2018-04-01T03:27:51.552Z,97147.33
2018-04-01T03:30:19.130Z,97152.38
2018-04-01T03:32:46.940Z,97150.40
2018-04-01T03:35:14.543Z,97157.69
2018-04-01T03:37:42.152Z,97150.90
2018-04-01T03:40:09.772Z,97154.75
2018-04-01T03:42:37.360Z,97153.70
2018-04-01T03:45:04.962Z,97158.09
2018-04-01T03:47:32.578Z,97154.75
2018-04-01T03:50:00.197Z,97153.18
2018-04-01T03:52:27.787Z,97161.55
2018-04-01T03:54:55.392Z,97161.80
2018-04-01T03:57:22.983Z,97161.39
2018-04-01T03:59:50.589Z,97158.73
2018-04-01T04:02:18.207Z,97162.47
2018-04-01T04:04:45.811Z,97166.58
2018-04-01T04:07:13.396Z,97164.84
2018-04-01T04:09:41.007Z,97175.33
2018-04-01T04:12:08.599Z,97180.52
2018-04-01T04:14:36.247Z,97170.16
2018-04-01T04:17:03.842Z,97168.68
2018-04-01T04:19:31.464Z,97172.16
2018-04-01T04:21:59.104Z,97174.94
2018-04-01T04:24:26.720Z,97177.48
2018-04-01T04:26:54.310Z,97167.25
2018-04-01T04:29:21.900Z,97174.29
2018-04-01T04:31:49.500Z,97179.73
2018-04-01T04:34:17.092Z,97177.19
2018-04-01T04:36:44.692Z,97179.83
2018-04-01T04:39:12.299Z,97182.63
2018-04-01T04:41:39.890Z,97184.91
2018-04-01T04:44:07.536Z,97183.98
2018-04-01T04:46:35.168Z,97187.69
2018-04-01T04:49:02.755Z,97189.94
2018-04-01T04:51:30.379Z,97190.22
2018-04-01T04:53:58.041Z,97191.80
2018-04-01T04:56:25.678Z,97188.49
2018-04-01T04:58:53.294Z,97196.98
2018-04-01T05:01:20.880Z,97192.73
2018-04-01T05:03:48.472Z,97194.61
2018-04-01T05:06:16.070Z,97200.84
2018-04-01T05:08:43.701Z,97204.42
2018-04-01T05:11:11.325Z,97211.06
2018-04-01T05:13:38.936Z,97212.91
2018-04-01T05:16:06.556Z,97220.61
2018-04-01T05:18:34.145Z,97229.66
2018-04-01T05:21:01.750Z,97228.34
2018-04-01T05:23:29.392Z,97229.27
2018-04-01T05:25:56.998Z,97234.97
2018-04-01T05:28:24.612Z,97229.27
2018-04-01T05:30:52.205Z,97240.69
2018-04-01T05:33:19.797Z,97247.84
2018-04-01T05:35:47.387Z,97247.20
2018-04-01T05:38:14.995Z,97252.23
2018-04-01T05:40:42.591Z,97251.43
2018-04-01T05:43:10.187Z,97262.20
2018-04-01T05:45:37.963Z,97264.46
2018-04-01T05:48:06.411Z,97278.02
2018-04-01T05:50:34.040Z,97281.20
2018-04-01T05:53:01.684Z,97280.92
2018-04-01T05:55:29.477Z,97280.93
2018-04-01T05:57:57.076Z,97291.84
2018-04-01T06:00:24.686Z,97281.45
2018-04-01T06:02:52.306Z,97295.14
2018-04-01T06:05:19.940Z,97293.81
2018-04-01T06:07:47.536Z,97301.13
2018-04-01T06:10:15.173Z,97300.20
2018-04-01T06:12:42.763Z,97304.59
2018-04-01T06:15:10.394Z,97302.73
2018-04-01T06:17:38.133Z,97302.98
2018-04-01T06:20:05.721Z,97305.12
2018-04-01T06:22:33.343Z,97308.58
2018-04-01T06:25:00.965Z,97304.05
2018-04-01T06:27:28.575Z,97312.83
2018-04-01T06:29:56.263Z,97310.70
2018-04-01T06:32:23.848Z,97307.92
2018-04-01T06:34:51.468Z,97316.02
2018-04-01T06:37:19.259Z,97317.07
2018-04-01T06:39:46.863Z,97322.38
2018-04-01T06:42:14.460Z,97321.20
2018-04-01T06:44:42.100Z,97320.40
2018-04-01T06:47:09.724Z,97317.48
2018-04-01T06:49:37.322Z,97319.48
2018-04-01T06:52:04.974Z,97325.60
2018-04-01T06:54:32.585Z,97331.30
2018-04-01T06:57:00.244Z,97341.41
2018-04-01T06:59:27.981Z,97339.95
2018-04-01T07:01:55.592Z,97338.33
2018-04-01T07:04:23.227Z,97344.31
2018-04-01T07:06:50.845Z,97344.06
2018-04-01T07:09:18.463Z,97347.94
2018-04-01T07:11:46.067Z,97354.05
2018-04-01T07:14:13.762Z,97358.55
2018-04-01T07:16:41.427Z,97365.98
2018-04-01T07:19:09.859Z,97357.18
2018-04-01T07:21:37.518Z,97358.52
2018-04-01T07:24:05.126Z,97357.97
2018-04-01T07:26:32.752Z,97351.98
2018-04-01T07:29:00.499Z,97360.69
2018-04-01T07:31:28.113Z,97362.00
2018-04-01T07:33:55.715Z,97358.02
2018-04-01T07:36:23.408Z,97368.36
2018-04-01T07:38:50.976Z,97369.43
2018-04-01T07:41:18.599Z,97367.34
2018-04-01T07:43:46.199Z,97372.66
2018-04-01T07:46:13.805Z,97376.00
2018-04-01T07:48:41.421Z,97360.12
2018-04-01T07:51:09.645Z,97374.39
2018-04-01T07:53:37.228Z,97380.11
2018-04-01T07:56:04.856Z,97371.17
2018-04-01T07:58:32.500Z,97369.67
2018-04-01T08:01:00.097Z,97369.16
2018-04-01T08:03:28.048Z,97381.82
2018-04-01T08:05:55.812Z,97375.84
2018-04-01T08:08:23.424Z,97379.10
2018-04-01T08:10:56.262Z,97378.63
2018-04-01T08:13:39.244Z,97379.55
2018-04-01T08:16:06.914Z,97388.44
2018-04-01T08:18:34.555Z,97384.58
2018-04-01T08:21:02.282Z,97384.33
2018-04-01T08:23:30.857Z,97388.63
2018-04-01T08:25:58.547Z,97375.77
2018-04-01T08:28:27.132Z,97384.20
2018-04-01T08:30:54.715Z,97364.02
2018-04-01T08:33:22.351Z,97371.85
2018-04-01T08:35:50.040Z,97379.69
2018-04-01T08:38:17.655Z,97374.05
2018-04-01T08:40:45.245Z,97381.88
2018-04-01T08:43:13.112Z,97374.90
2018-04-01T08:45:40.748Z,97379.94
2018-04-01T08:48:08.370Z,97378.41
2018-04-01T08:50:36.071Z,97377.64
2018-04-01T08:53:04.728Z,97373.41
2018-04-01T08:55:32.384Z,97387.31
2018-04-01T08:58:00.396Z,97387.30
2018-04-01T09:00:28.154Z,97379.42
2018-04-01T09:02:57.580Z,97385.91
2018-04-01T09:05:26.417Z,97406.23
2018-04-01T09:08:02.455Z,97403.13
2018-04-01T09:10:30.304Z,97402.28
2018-04-01T09:12:57.903Z,97388.58
2018-04-01T09:15:25.505Z,97396.59
2018-04-01T09:17:53.217Z,97394.77
2018-04-01T09:20:20.845Z,97400.75
2018-04-01T09:22:48.452Z,97398.89
2018-04-01T09:25:17.071Z,97401.05
2018-04-01T09:27:44.727Z,97401.29
2018-04-01T09:30:14.178Z,97404.36
2018-04-01T09:32:43.868Z,97405.38
2018-04-01T09:35:11.564Z,97418.59
2018-04-01T09:37:39.156Z,97417.69
2018-04-01T09:40:07.234Z,97409.47
2018-04-01T09:42:35.611Z,97410.55
2018-04-01T09:45:03.240Z,97419.09
2018-04-01T09:47:31.518Z,97427.35
2018-04-01T09:49:59.284Z,97439.47
2018-04-01T09:52:27.003Z,97448.16
2018-04-01T09:54:54.768Z,97444.28
2018-04-01T09:57:22.468Z,97449.95
2018-04-01T09:59:50.056Z,97456.37
2018-04-01T10:02:18.272Z,97457.06
2018-04-01T10:04:46.384Z,97477.77
2018-04-01T10:07:21.990Z,97476.97
2018-04-01T10:09:50.256Z,97469.98
2018-04-01T10:12:18.411Z,97476.33
2018-04-01T10:14:46.669Z,97490.79
2018-04-01T10:17:15.746Z,97480.88
2018-04-01T10:19:43.977Z,97497.23
2018-04-01T10:22:12.782Z,97499.76
2018-04-01T10:24:40.938Z,97496.94
2018-04-01T10:27:09.144Z,97504.35
2018-04-01T10:29:37.324Z,97496.09
2018-04-01T10:32:06.021Z,97502.42
2018-04-01T10:34:34.161Z,97507.14
2018-04-01T10:37:02.298Z,97491.44
2018-04-01T10:39:30.414Z,97494.77
2018-04-01T10:41:58.556Z,97485.42
2018-04-01T10:44:26.715Z,97499.37
2018-04-01T10:46:55.643Z,97492.84
2018-04-01T10:49:24.753Z,97504.08
2018-04-01T10:51:52.924Z,97511.02
2018-04-01T10:54:20.536Z,97513.63
2018-04-01T10:56:48.215Z,97517.67
2018-04-01T10:59:15.793Z,97513.70
2018-04-01T11:01:43.651Z,97508.45
2018-04-01T11:04:11.940Z,97511.96
2018-04-01T11:06:39.605Z,97517.72
2018-04-01T11:09:07.893Z,97528.22
2018-04-01T11:11:35.565Z,97522.84
2018-04-01T11:14:04.360Z,97529.41
2018-04-01T11:16:34.850Z,97530.65
2018-04-01T11:19:04.753Z,97539.81
2018-04-01T11:21:33.715Z,97523.42
2018-04-01T11:24:15.473Z,97517.30
2018-04-01T11:26:51.963Z,97497.54
2018-04-01T11:29:28.382Z,97531.48
2018-04-01T11:35:49.083Z,97532.19
2018-04-01T11:38:16.722Z,97534.86
2018-04-01T11:40:44.588Z,97548.94
2018-04-01T11:43:13.694Z,97542.01
2018-04-01T11:45:41.353Z,97544.17
2018-04-01T11:48:09.034Z,97531.73
2018-04-01T11:50:38.111Z,97525.70
2018-04-01T11:53:09.853Z,97521.70
2018-04-01T11:55:37.709Z,97532.22
2018-04-01T11:58:07.194Z,97519.74
2018-04-01T12:00:34.901Z,97527.56
2018-04-01T12:03:02.941Z,97528.87
2018-04-01T12:05:30.746Z,97526.92
2018-04-01T12:07:59.414Z,97537.86
2018-04-01T12:10:36.446Z,97543.30
2018-04-01T12:13:05.604Z,97543.44
2018-04-01T12:15:36.092Z,97547.23
2018-04-01T12:18:05.499Z,97546.59
2018-04-01T12:24:13.072Z,97550.29
2018-04-01T12:26:42.979Z,97533.00
2018-04-01T12:29:11.144Z,97452.05
2018-04-01T12:31:43.262Z,97548.30
2018-04-01T12:36:54.764Z,97566.30
2018-04-01T12:43:01.793Z,97584.23
2018-04-01T12:45:32.754Z,97589.61
2018-04-01T12:48:02.410Z,97591.41
2018-04-01T12:53:55.876Z,97598.23
2018-04-01T12:56:28.546Z,97603.11
2018-04-01T12:58:59.376Z,97604.06
2018-04-01T13:01:29.978Z,97613.63
2018-04-01T13:04:36.763Z,97610.67
2018-04-01T13:07:10.595Z,97613.55
2018-04-01T13:13:21.034Z,97622.98
2018-04-01T13:23:16.469Z,97605.53
2018-04-01T13:25:45.577Z,97599.01
2018-04-01T13:28:25.041Z,97610.94
2018-04-01T13:31:05.742Z,97599.98
2018-04-01T13:33:40.640Z,97612.84
2018-04-01T13:36:11.429Z,97618.10
2018-04-01T13:38:42.820Z,97616.47
2018-04-01T13:41:11.811Z,97575.38
2018-04-01T13:49:55.877Z,97618.50
2018-04-01T13:52:49.642Z,97616.97
2018-04-01T13:55:36.281Z,97604.62
2018-04-01T13:58:06.687Z,97605.41
2018-04-01T14:00:35.239Z,97598.97
2018-04-01T14:03:06.173Z,97607.30
2018-04-01T14:05:36.282Z,97599.20
2018-04-01T14:12:03.507Z,97601.17
2018-04-01T14:14:32.084Z,97620.05
2018-04-01T14:16:59.684Z,97629.17
2018-04-01T14:19:27.347Z,97623.39
2018-04-01T14:21:54.976Z,97627.25
2018-04-01T14:24:22.671Z,97620.83
2018-04-01T14:26:52.791Z,97632.35
2018-04-01T14:29:20.519Z,97645.05
2018-04-01T14:31:48.689Z,97634.20
2018-04-01T14:34:17.089Z,97639.02
2018-04-01T14:37:02.320Z,97647.23
2018-04-01T14:55:51.178Z,97697.52
2018-04-01T14:58:30.304Z,97688.56
2018-04-01T15:08:39.769Z,97704.97
2018-04-01T15:15:03.016Z,97721.23
2018-04-01T15:58:54.764Z,97704.22
2018-04-01T16:01:23.904Z,97693.44
2018-04-01T16:04:24.034Z,97684.64
2018-04-01T16:09:57.529Z,97678.88
2018-04-01T16:12:25.234Z,97688.60
2018-04-01T16:14:59.224Z,97705.78
2018-04-01T16:17:26.874Z,97711.50
2018-04-01T16:19:54.649Z,97747.98
2018-04-01T16:22:22.983Z,97802.47
2018-04-01T16:24:50.927Z,97801.29
2018-04-01T16:27:18.574Z,97792.80
2018-04-01T16:29:46.240Z,97781.74
2018-04-01T16:32:13.908Z,97782.93
2018-04-01T16:34:45.952Z,97794.91
2018-04-01T16:37:13.663Z,97801.70
2018-04-01T16:39:41.341Z,97803.38
2018-04-01T16:42:16.260Z,97814.62
2018-04-01T16:58:37.844Z,97820.73
2018-04-01T17:05:09.040Z,97826.33
2018-04-01T17:07:48.293Z,97832.16
2018-04-01T17:10:16.063Z,97839.28
2018-04-01T17:12:47.790Z,97848.30
2018-04-01T17:15:22.897Z,97881.34
2018-04-01T17:17:51.683Z,97887.23
2018-04-01T17:21:09.295Z,97922.47
2018-04-01T17:23:38.968Z,97900.01
2018-04-01T17:26:07.805Z,97894.69
2018-04-01T17:28:35.458Z,97891.09
2018-04-01T17:31:05.548Z,97885.40
2018-04-01T17:33:34.263Z,97884.78
2018-04-01T17:36:01.963Z,97885.38
2018-04-01T17:38:30.383Z,97900.41
2018-04-01T17:40:58.027Z,97894.92
2018-04-01T17:43:29.524Z,97910.98
2018-04-01T17:46:07.131Z,97912.42
2018-04-01T17:48:35.055Z,97898.61
2018-04-01T17:51:02.702Z,97915.70
2018-04-01T17:53:31.946Z,97923.36
2018-04-01T17:56:00.059Z,97916.39
2018-04-01T17:58:27.745Z,97932.69
2018-04-01T18:00:55.456Z,97937.30
2018-04-01T18:03:23.073Z,97943.09
2018-04-01T18:05:50.713Z,97950.73
2018-04-01T18:08:18.297Z,97964.94
2018-04-01T18:10:45.895Z,97963.80
2018-04-01T18:13:14.151Z,97968.73
2018-04-01T18:15:43.090Z,97955.91
2018-04-01T18:18:10.703Z,97970.66
2018-04-01T18:20:38.346Z,97955.06
2018-04-01T18:23:06.087Z,97960.95
2018-04-01T18:25:33.774Z,97968.81
2018-04-01T18:28:01.477Z,97967.16
2018-04-01T18:30:29.174Z,97970.55
2018-04-01T18:32:56.760Z,97967.16
2018-04-01T18:35:24.415Z,97968.92
2018-04-01T18:37:52.026Z,97965.31
2018-04-01T18:40:19.630Z,97962.62
2018-04-01T18:42:47.375Z,97962.69
2018-04-01T18:45:14.989Z,97957.05
2018-04-01T18:47:42.662Z,97961.62
2018-04-01T18:50:10.271Z,97962.33
2018-04-01T18:52:37.948Z,97955.30
2018-04-01T18:55:05.580Z,97953.48
2018-04-01T18:57:33.240Z,97961.22
2018-04-01T19:00:00.845Z,97963.58
2018-04-01T19:02:28.570Z,97965.27
2018-04-01T19:04:58.936Z,97980.16
2018-04-01T19:07:27.467Z,97976.55
2018-04-01T19:09:55.237Z,97981.36
2018-04-01T19:12:22.940Z,97990.37
2018-04-01T19:14:50.868Z,97996.61
2018-04-01T19:17:19.139Z,98005.99
2018-04-01T19:19:47.486Z,98010.94
2018-04-01T19:22:19.733Z,98023.78
2018-04-01T19:24:47.980Z,98000.75
2018-04-01T19:27:17.344Z,98009.16
2018-04-01T19:29:45.547Z,98009.86
2018-04-01T19:32:13.690Z,98039.77
2018-04-01T19:34:41.953Z,98042.71
2018-04-01T19:37:12.001Z,98051.22
2018-04-01T19:39:40.257Z,98046.17
2018-04-01T19:42:09.091Z,98046.98
2018-04-01T19:44:37.325Z,98058.73
2018-04-01T19:47:05.612Z,98067.28
2018-04-01T19:49:33.806Z,98062.83
2018-04-01T19:52:01.972Z,98071.02
2018-04-01T19:54:30.120Z,98080.66
2018-04-01T19:56:58.556Z,98078.38
2018-04-01T19:59:26.795Z,98090.98
2018-04-01T20:01:55.002Z,98092.28
2018-04-01T20:04:23.131Z,98096.36
2018-04-01T20:06:51.322Z,98097.10
2018-04-01T20:09:19.419Z,98111.07
2018-04-01T20:11:47.598Z,98111.91
2018-04-01T20:14:15.989Z,98112.48
2018-04-01T20:16:44.160Z,98101.05
2018-04-01T20:19:12.377Z,98107.59
2018-04-01T20:21:40.510Z,98098.37
2018-04-01T20:24:08.702Z,98093.75
2018-04-01T20:26:37.110Z,98099.92
2018-04-01T20:29:05.625Z,98096.36
2018-04-01T20:31:33.902Z,98111.45
2018-04-01T20:34:02.111Z,98103.73
2018-04-01T20:36:30.300Z,98097.42
2018-04-01T20:38:58.460Z,98092.12
2018-04-01T20:41:26.624Z,98103.31
2018-04-01T20:43:54.785Z,98107.05
2018-04-01T20:46:22.962Z,98103.78
2018-04-01T20:48:51.143Z,98115.67
2018-04-01T20:51:19.272Z,98124.36
2018-04-01T20:53:47.423Z,98125.05
2018-04-01T20:56:15.561Z,98123.00
2018-04-01T20:58:43.707Z,98139.83
2018-04-01T21:01:11.864Z,98126.89
2018-04-01T21:03:39.992Z,98132.17
2018-04-01T21:06:08.176Z,98125.92
2018-04-01T21:08:36.349Z,98132.28
2018-04-01T21:11:06.361Z,98140.17
2018-04-01T21:13:34.587Z,98149.28
2018-04-01T21:16:02.766Z,98149.44
2018-04-01T21:18:30.911Z,98150.42
2018-04-01T21:20:59.033Z,98152.72
2018-04-01T21:23:27.221Z,98160.61
2018-04-01T21:25:55.320Z,98157.14
2018-04-01T21:28:23.452Z,98170.59
2018-04-01T21:30:51.588Z,98174.72
2018-04-01T21:33:19.746Z,98164.49
2018-04-01T21:35:47.940Z,98159.02
2018-04-01T21:38:16.183Z,98163.45
2018-04-01T21:40:44.301Z,98172.18
2018-04-01T21:43:12.483Z,98160.53
2018-04-01T21:45:40.624Z,98163.70
2018-04-01T21:48:08.740Z,98177.52
2018-04-01T21:50:36.892Z,98175.62
2018-04-01T21:53:05.028Z,98166.66
2018-04-01T21:55:33.156Z,98174.37
2018-04-01T21:58:01.321Z,98180.03
2018-04-01T22:00:29.492Z,98165.00
2018-04-01T22:02:57.608Z,98161.69
2018-04-01T22:05:25.748Z,98166.45
2018-04-01T22:07:53.883Z,98180.62
2018-04-01T22:10:22.005Z,98177.88
2018-04-01T22:12:50.141Z,98176.69
2018-04-01T22:15:18.284Z,98189.80
2018-04-01T22:17:46.733Z,98191.83
2018-04-01T22:20:16.748Z,98198.10
2018-04-01T22:22:56.552Z,98201.10
2018-04-01T22:25:24.727Z,98206.97
2018-04-01T22:27:53.625Z,98203.75
2018-04-01T22:30:22.566Z,98207.44
2018-04-01T22:32:50.691Z,98205.59
2018-04-01T22:35:19.177Z,98211.76
2018-04-01T22:37:47.287Z,98225.26
2018-04-01T22:40:15.429Z,98217.27
2018-04-01T22:42:43.580Z,98213.09
2018-04-01T22:45:11.729Z,98208.95
2018-04-01T22:47:39.862Z,98208.08
2018-04-01T22:50:07.999Z,98213.75
2018-04-01T22:52:36.206Z,98216.09
2018-04-01T22:55:04.381Z,98209.05
2018-04-01T22:57:32.513Z,98217.20
2018-04-01T23:00:00.637Z,98221.23
2018-04-01T23:02:28.745Z,98226.83
2018-04-01T23:04:56.884Z,98228.27
2018-04-01T23:07:24.996Z,98229.70
2018-04-01T23:09:53.164Z,98237.65
2018-04-01T23:12:21.306Z,98232.75
2018-04-01T23:14:49.427Z,98238.35
2018-04-01T23:17:17.553Z,98237.78
2018-04-01T23:19:45.695Z,98244.92
2018-04-01T23:22:13.803Z,98251.83
2018-04-01T23:24:42.852Z,98256.11
2018-04-01T23:27:10.976Z,98258.70
2018-04-01T23:29:39.110Z,98261.52
2018-04-01T23:32:07.225Z,98262.52
2018-04-01T23:34:35.372Z,98259.22
2018-04-01T23:37:03.487Z,98266.36
2018-04-01T23:39:31.679Z,98265.85
2018-04-01T23:41:59.885Z,98274.86
2018-04-01T23:44:28.020Z,98274.56
2018-04-01T23:46:56.145Z,98282.22
2018-04-01T23:49:24.327Z,98278.64
2018-04-01T23:51:52.504Z,98277.42
2018-04-01T23:54:20.635Z,98273.64
2018-04-01T23:56:48.752Z,98279.00
2018-04-01T23:59:16.898Z,98288.33
